createdAt,value
2022-08-26T00:01:42.070Z,6.03
2022-08-26T00:04:12.399Z,6.93
2022-08-26T00:06:42.603Z,6.32
2022-08-26T00:09:16.100Z,7.03
2022-08-26T00:11:43.619Z,6.80
2022-08-26T00:14:10.260Z,6.63
2022-08-26T00:16:36.956Z,7.10
2022-08-26T00:19:08.301Z,7.18
2022-08-26T00:21:35.589Z,6.43
2022-08-26T00:24:07.177Z,6.93
2022-08-26T00:26:34.864Z,6.50
2022-08-26T00:29:01.871Z,7.20
2022-08-26T00:31:29.048Z,6.63
2022-08-26T00:33:58.064Z,6.43
2022-08-26T00:36:24.868Z,6.53
2022-08-26T00:38:56.418Z,6.40
2022-08-26T00:41:23.016Z,6.40
2022-08-26T00:43:50.941Z,7.72
2022-08-26T00:46:23.012Z,6.47
2022-08-26T00:48:54.144Z,7.50
2022-08-26T00:51:25.096Z,7.38
2022-08-26T00:54:04.044Z,6.68
2022-08-26T00:56:38.253Z,6.72
2022-08-26T00:59:08.986Z,6.40
2022-08-26T01:01:38.110Z,6.85
2022-08-26T01:04:05.936Z,6.78
2022-08-26T01:06:32.873Z,6.78
2022-08-26T01:09:00.063Z,7.60
2022-08-26T01:11:26.900Z,7.40
2022-08-26T01:13:57.668Z,7.57
2022-08-26T01:19:03.769Z,6.80
2022-08-26T01:21:58.660Z,6.68
2022-08-26T01:24:29.048Z,8.02
2022-08-26T01:27:01.664Z,6.55
2022-08-26T01:29:30.796Z,6.95
2022-08-26T01:31:58.769Z,6.65
2022-08-26T01:34:36.103Z,7.60
2022-08-26T01:37:07.459Z,7.03
2022-08-26T01:39:35.749Z,6.40
2022-08-26T01:42:03.462Z,7.60
2022-08-26T01:44:36.248Z,7.88
2022-08-26T01:47:05.012Z,7.18
2022-08-26T01:49:35.824Z,7.72
2022-08-26T01:52:06.959Z,7.47
2022-08-26T01:54:33.852Z,7.47
2022-08-26T01:57:01.610Z,7.55
2022-08-26T01:59:29.953Z,7.03
2022-08-26T02:01:59.389Z,7.35
2022-08-26T02:04:33.210Z,6.72
2022-08-26T02:07:04.606Z,6.88
2022-08-26T02:09:31.581Z,6.90
2022-08-26T02:12:01.637Z,7.63
2022-08-26T02:14:43.707Z,6.45
2022-08-26T02:17:12.155Z,7.53
2022-08-26T02:19:41.971Z,6.38
2022-08-26T02:22:14.012Z,8.00
2022-08-26T02:25:00.229Z,7.32
2022-08-26T02:27:32.143Z,7.05
2022-08-26T02:30:14.800Z,7.03
2022-08-26T02:32:44.284Z,7.85
2022-08-26T02:35:13.659Z,7.03
2022-08-26T02:37:45.159Z,7.20
2022-08-26T02:40:13.780Z,8.05
2022-08-26T02:42:41.309Z,6.95
2022-08-26T02:45:10.895Z,7.78
2022-08-26T02:47:37.514Z,7.47
2022-08-26T02:50:05.807Z,7.32
2022-08-26T02:52:32.523Z,7.43
2022-08-26T02:54:59.184Z,7.40
2022-08-26T02:57:26.243Z,6.82
2022-08-26T02:59:52.965Z,8.57
2022-08-26T03:02:21.272Z,6.95
2022-08-26T03:04:57.857Z,7.25
2022-08-26T03:07:28.526Z,7.60
2022-08-26T03:09:55.127Z,7.43
2022-08-26T03:12:21.960Z,7.68
2022-08-26T03:14:48.669Z,7.57
2022-08-26T03:17:16.029Z,7.43
2022-08-26T03:19:42.697Z,8.15
2022-08-26T03:22:09.400Z,8.10
2022-08-26T03:24:37.697Z,7.63
2022-08-26T03:27:07.301Z,8.25
2022-08-26T03:29:53.150Z,8.32
2022-08-26T03:32:20.691Z,7.50
2022-08-26T03:34:47.380Z,7.93
2022-08-26T03:37:14.856Z,8.23
2022-08-26T03:39:41.833Z,8.45
2022-08-26T03:42:08.464Z,9.20
2022-08-26T03:44:37.902Z,7.88
2022-08-26T03:47:08.814Z,9.38
2022-08-26T03:49:35.986Z,9.45
2022-08-26T03:52:03.779Z,8.73
2022-08-26T03:54:30.472Z,8.60
2022-08-26T03:56:57.079Z,9.18
2022-08-26T03:59:23.910Z,9.27
2022-08-26T04:01:51.436Z,9.43
2022-08-26T04:04:18.448Z,10.57
2022-08-26T04:06:50.159Z,10.35
2022-08-26T04:09:20.713Z,10.27
2022-08-26T04:11:50.326Z,9.73
2022-08-26T04:14:20.545Z,10.40
2022-08-26T04:16:48.396Z,9.13
2022-08-26T04:19:16.667Z,9.98
2022-08-26T04:21:45.080Z,8.90
2022-08-26T04:24:15.739Z,9.73
2022-08-26T04:26:43.812Z,10.07
2022-08-26T04:29:20.495Z,10.98
2022-08-26T04:31:55.253Z,10.88
2022-08-26T04:34:28.993Z,11.52
2022-08-26T04:36:56.754Z,10.90
2022-08-26T04:39:24.368Z,10.98
2022-08-26T04:41:53.126Z,11.20
2022-08-26T04:44:21.156Z,10.95
2022-08-26T04:46:48.245Z,9.27
2022-08-26T04:49:15.672Z,9.90
2022-08-26T04:51:43.963Z,10.60
2022-08-26T04:54:10.856Z,9.95
2022-08-26T04:56:41.569Z,11.93
2022-08-26T04:59:16.711Z,11.10
2022-08-26T05:01:50.891Z,10.57
2022-08-26T05:04:19.660Z,12.85
2022-08-26T05:06:49.094Z,12.05
2022-08-26T05:09:16.507Z,11.93
2022-08-26T05:11:43.107Z,13.20
2022-08-26T05:14:10.050Z,12.52
2022-08-26T05:16:37.758Z,12.27
2022-08-26T05:19:08.477Z,11.98
2022-08-26T05:21:35.653Z,11.23
2022-08-26T05:24:02.570Z,10.57
2022-08-26T05:26:31.288Z,10.15
2022-08-26T05:28:58.530Z,11.00
2022-08-26T05:31:28.662Z,11.43
2022-08-26T05:33:57.528Z,10.45
2022-08-26T05:36:27.486Z,10.43
2022-08-26T05:38:56.143Z,11.00
2022-08-26T05:41:34.238Z,10.25
2022-08-26T05:44:06.084Z,10.25
2022-08-26T05:46:34.433Z,10.20
2022-08-26T05:49:01.250Z,8.90
2022-08-26T05:51:30.490Z,9.70
2022-08-26T05:53:58.691Z,9.88
2022-08-26T05:56:27.587Z,9.35
2022-08-26T05:58:56.066Z,9.40
2022-08-26T06:01:27.245Z,10.27
2022-08-26T06:03:59.678Z,9.55
2022-08-26T06:06:32.089Z,9.80
2022-08-26T06:09:00.393Z,10.45
2022-08-26T06:11:29.581Z,9.35
2022-08-26T06:14:02.705Z,9.88
2022-08-26T06:16:32.645Z,9.13
2022-08-26T06:19:02.754Z,9.05
2022-08-26T06:21:32.863Z,9.55
2022-08-26T06:24:27.206Z,9.80
2022-08-26T06:27:02.785Z,9.13
2022-08-26T06:29:33.571Z,10.07
2022-08-26T06:32:01.112Z,9.80
2022-08-26T06:34:32.989Z,10.63
2022-08-26T06:37:06.508Z,10.43
2022-08-26T06:39:33.577Z,10.20
2022-08-26T06:42:01.197Z,10.88
2022-08-26T06:44:29.890Z,9.75
2022-08-26T06:46:56.545Z,10.05
2022-08-26T06:49:25.706Z,9.98
2022-08-26T06:51:55.476Z,10.55
2022-08-26T06:54:22.411Z,10.27
2022-08-26T06:56:49.559Z,10.10
2022-08-26T06:59:16.264Z,10.23
2022-08-26T07:01:45.004Z,10.02
2022-08-26T07:04:15.759Z,10.38
2022-08-26T07:06:52.291Z,10.38
2022-08-26T07:09:24.786Z,10.02
2022-08-26T07:11:52.637Z,10.88
2022-08-26T07:14:21.491Z,9.38
2022-08-26T07:16:49.288Z,9.77
2022-08-26T07:19:30.052Z,10.10
2022-08-26T07:21:57.362Z,9.15
2022-08-26T07:24:24.048Z,10.45
2022-08-26T07:26:59.145Z,9.65
2022-08-26T07:29:25.885Z,10.00
2022-08-26T07:31:53.483Z,9.48
2022-08-26T07:34:24.004Z,10.02
2022-08-26T07:36:51.741Z,10.02
2022-08-26T07:39:18.958Z,10.55
2022-08-26T07:41:47.281Z,9.30
2022-08-26T07:44:14.672Z,9.77
2022-08-26T07:46:41.552Z,9.63
2022-08-26T07:49:12.155Z,10.02
2022-08-26T07:51:39.741Z,9.90
2022-08-26T07:54:07.125Z,10.60
2022-08-26T07:56:33.775Z,12.60
2022-08-26T07:59:00.599Z,10.20
2022-08-26T08:01:29.655Z,9.23
2022-08-26T08:03:57.595Z,12.50
2022-08-26T08:06:26.959Z,12.50
2022-08-26T08:08:55.453Z,10.98
2022-08-26T08:11:23.244Z,10.48
2022-08-26T08:13:56.413Z,10.93
2022-08-26T08:16:26.213Z,11.98
2022-08-26T08:18:53.584Z,9.77
2022-08-26T08:21:23.808Z,9.15
2022-08-26T08:23:56.026Z,9.60
2022-08-26T08:26:24.689Z,8.80
2022-08-26T08:28:54.697Z,9.45
2022-08-26T08:31:56.003Z,9.32
2022-08-26T08:34:17.013Z,8.73
2022-08-26T08:36:46.337Z,9.43
2022-08-26T08:39:13.902Z,9.13
2022-08-26T08:41:56.013Z,8.88
2022-08-26T08:47:06.173Z,8.35
2022-08-26T08:49:34.532Z,9.40
2022-08-26T08:52:04.894Z,8.98
2022-08-26T08:54:32.645Z,9.77
2022-08-26T08:57:14.339Z,9.35
2022-08-26T08:59:53.305Z,9.10
2022-08-26T09:02:30.457Z,9.30
2022-08-26T09:05:31.816Z,9.38
2022-08-26T09:08:23.135Z,9.07
2022-08-26T09:11:02.420Z,8.85
2022-08-26T09:13:31.709Z,8.82
2022-08-26T09:16:14.083Z,8.48
2022-08-26T09:19:06.000Z,9.43
2022-08-26T09:21:33.753Z,9.63
2022-08-26T09:24:00.683Z,9.93
2022-08-26T09:26:41.076Z,9.05
2022-08-26T09:29:36.245Z,10.05
2022-08-26T09:32:24.402Z,9.43
2022-08-26T09:35:07.578Z,9.35
2022-08-26T09:40:18.507Z,9.30
2022-08-26T09:42:47.034Z,9.40
2022-08-26T09:45:15.507Z,9.25
2022-08-26T09:47:46.785Z,9.82
2022-08-26T09:50:29.083Z,9.93
2022-08-26T09:53:16.353Z,9.98
2022-08-26T09:55:49.146Z,9.75
2022-08-26T09:58:32.614Z,9.95
2022-08-26T10:01:01.773Z,13.13
2022-08-26T10:03:33.119Z,10.70
2022-08-26T10:06:21.197Z,9.38
2022-08-26T10:08:52.471Z,9.43
2022-08-26T10:11:42.502Z,9.85
2022-08-26T10:14:36.970Z,9.85
2022-08-26T10:17:14.317Z,9.98
2022-08-26T10:19:56.655Z,9.80
2022-08-26T10:22:42.636Z,11.05
2022-08-26T10:25:16.069Z,11.00
2022-08-26T10:27:54.917Z,10.95
2022-08-26T10:30:27.583Z,11.68
2022-08-26T10:33:08.303Z,12.13
2022-08-26T10:35:41.883Z,11.60
2022-08-26T10:38:15.845Z,11.75
2022-08-26T10:41:09.702Z,12.20
2022-08-26T10:44:00.362Z,11.82
2022-08-26T10:46:39.664Z,13.43
2022-08-26T10:49:15.324Z,11.93
2022-08-26T10:52:12.297Z,12.52
2022-08-26T10:54:59.729Z,12.02
2022-08-26T10:58:05.021Z,12.30
2022-08-26T11:01:12.634Z,13.77
2022-08-26T11:04:02.873Z,12.77
2022-08-26T11:06:31.324Z,12.48
2022-08-26T11:09:04.564Z,12.27
2022-08-26T11:11:40.359Z,13.20
2022-08-26T11:14:29.212Z,12.68
2022-08-26T11:16:58.889Z,13.45
2022-08-26T11:19:59.409Z,14.75
2022-08-26T11:22:38.138Z,14.10
2022-08-26T11:25:19.554Z,13.67
2022-08-26T11:27:50.729Z,14.60
2022-08-26T11:30:19.623Z,13.68
2022-08-26T11:32:52.534Z,12.82
2022-08-26T11:35:19.346Z,14.60
2022-08-26T11:37:55.499Z,15.15
2022-08-26T11:40:28.961Z,14.18
2022-08-26T11:43:00.605Z,14.95
2022-08-26T11:45:37.574Z,13.77
2022-08-26T11:48:41.228Z,15.27
2022-08-26T11:51:28.117Z,15.05
2022-08-26T11:54:13.861Z,15.00
2022-08-26T11:56:44.573Z,14.13
2022-08-26T11:59:15.575Z,15.85
2022-08-26T12:01:45.623Z,13.68
2022-08-26T12:04:20.973Z,13.18
2022-08-26T12:06:51.042Z,13.15
2022-08-26T12:09:27.597Z,12.90
2022-08-26T12:12:13.908Z,13.90
2022-08-26T12:14:41.702Z,13.68
2022-08-26T12:17:16.139Z,13.60
2022-08-26T12:19:43.491Z,13.75
2022-08-26T12:22:32.128Z,14.40
2022-08-26T12:25:02.771Z,13.38
2022-08-26T12:30:00.923Z,12.43
2022-08-26T12:32:31.425Z,12.35
2022-08-26T12:35:01.868Z,13.00
2022-08-26T12:37:33.789Z,13.00
2022-08-26T12:40:45.709Z,12.25
2022-08-26T12:43:34.250Z,11.75
2022-08-26T12:46:01.068Z,12.13
2022-08-26T12:48:35.856Z,12.23
2022-08-26T12:51:05.598Z,11.45
2022-08-26T12:53:34.977Z,12.77
2022-08-26T12:56:04.646Z,11.65
2022-08-26T12:58:36.497Z,10.75
2022-08-26T13:01:09.066Z,10.68
2022-08-26T13:03:38.444Z,10.38
2022-08-26T13:06:29.977Z,10.10
2022-08-26T13:09:23.863Z,9.45
2022-08-26T13:11:52.906Z,8.88
2022-08-26T13:14:23.985Z,7.85
2022-08-26T13:16:52.062Z,9.35
2022-08-26T13:19:24.057Z,8.13
2022-08-26T13:21:56.346Z,8.02
2022-08-26T13:24:29.134Z,7.35
2022-08-26T13:26:58.804Z,7.28
2022-08-26T13:29:25.509Z,7.32
2022-08-26T13:31:52.551Z,7.13
2022-08-26T13:34:21.386Z,7.03
2022-08-26T13:36:50.155Z,6.95
2022-08-26T13:39:17.604Z,7.80
2022-08-26T13:41:44.504Z,7.15
2022-08-26T13:44:11.956Z,8.02
2022-08-26T13:49:11.403Z,8.10
2022-08-26T13:51:39.088Z,6.30
2022-08-26T13:54:06.845Z,7.03
2022-08-26T13:56:34.952Z,7.32
2022-08-26T13:59:02.913Z,6.03
2022-08-26T14:01:31.568Z,6.72
2022-08-26T14:04:00.432Z,6.97
2022-08-26T14:06:27.046Z,6.85
2022-08-26T14:08:53.788Z,6.45
2022-08-26T14:11:21.469Z,6.65
2022-08-26T14:13:48.294Z,6.90
2022-08-26T14:16:22.841Z,6.63
2022-08-26T14:18:50.949Z,6.47
2022-08-26T14:21:18.245Z,6.28
2022-08-26T14:23:44.911Z,6.35
2022-08-26T14:26:12.027Z,7.13
2022-08-26T14:28:55.290Z,6.50
2022-08-26T14:31:23.750Z,6.68
2022-08-26T14:33:50.654Z,6.57
2022-08-26T14:36:29.302Z,6.43
2022-08-26T14:38:58.306Z,6.70
2022-08-26T14:41:25.430Z,6.07
2022-08-26T14:43:58.081Z,6.18
2022-08-26T14:46:29.104Z,5.88
2022-08-26T14:49:01.638Z,7.10
2022-08-26T14:51:29.256Z,6.25
2022-08-26T14:54:14.160Z,6.05
2022-08-26T14:56:51.275Z,6.50
2022-08-26T14:59:24.079Z,6.22
2022-08-26T15:01:51.201Z,6.10
2022-08-26T15:04:18.620Z,6.57
2022-08-26T15:06:45.342Z,6.35
2022-08-26T15:09:12.641Z,5.50
2022-08-26T15:11:39.448Z,5.43
2022-08-26T15:14:06.412Z,5.20
2022-08-26T15:16:34.274Z,5.22
2022-08-26T15:19:04.172Z,5.55
2022-08-26T15:21:32.768Z,4.90
2022-08-26T15:24:00.806Z,4.70
2022-08-26T15:26:29.808Z,5.03
2022-08-26T15:28:59.077Z,4.80
2022-08-26T15:31:33.505Z,5.03
2022-08-26T15:34:03.941Z,4.82
2022-08-26T15:36:31.981Z,4.68
2022-08-26T15:39:00.333Z,5.30
2022-08-26T15:41:28.232Z,4.90
2022-08-26T15:43:54.949Z,4.95
2022-08-26T15:46:21.683Z,4.80
2022-08-26T15:48:49.642Z,5.30
2022-08-26T15:51:23.218Z,5.22
2022-08-26T15:53:51.304Z,5.68
2022-08-26T15:56:18.389Z,4.95
2022-08-26T15:58:45.560Z,5.50
2022-08-26T16:01:12.434Z,4.90
2022-08-26T16:03:39.019Z,5.30
2022-08-26T16:06:06.894Z,4.70
2022-08-26T16:08:36.725Z,4.85
2022-08-26T16:11:04.087Z,4.90
2022-08-26T16:13:39.801Z,4.53
2022-08-26T16:16:07.951Z,4.20
2022-08-26T16:18:34.657Z,4.72
2022-08-26T16:21:12.614Z,4.72
2022-08-26T16:23:40.765Z,4.10
2022-08-26T16:26:16.711Z,4.05
2022-08-26T16:28:43.749Z,4.72
2022-08-26T16:31:11.768Z,4.78
2022-08-26T16:33:38.590Z,4.18
2022-08-26T16:36:06.870Z,5.72
2022-08-26T16:38:34.773Z,4.57
2022-08-26T16:41:02.201Z,4.75
2022-08-26T16:43:29.009Z,3.63
2022-08-26T16:45:56.511Z,4.43
2022-08-26T16:48:32.450Z,4.07
2022-08-26T16:50:59.340Z,3.67
2022-08-26T16:53:25.942Z,3.95
2022-08-26T16:55:52.641Z,4.60
2022-08-26T16:58:22.109Z,3.70
2022-08-26T17:00:49.825Z,4.90
2022-08-26T17:03:17.384Z,4.40
2022-08-26T17:05:47.022Z,4.85
2022-08-26T17:08:24.360Z,4.32
2022-08-26T17:10:55.518Z,4.90
2022-08-26T17:13:34.721Z,5.10
2022-08-26T17:16:04.844Z,4.30
2022-08-26T17:18:33.317Z,4.50
2022-08-26T17:21:03.011Z,4.95
2022-08-26T17:23:29.984Z,5.50
2022-08-26T17:25:56.749Z,5.70
2022-08-26T17:28:23.356Z,7.40
2022-08-26T17:30:50.376Z,5.72
2022-08-26T17:33:18.678Z,7.90
2022-08-26T17:35:51.700Z,9.73
2022-08-26T17:38:18.552Z,9.18
2022-08-26T17:40:45.190Z,6.40
2022-08-26T17:43:12.566Z,5.97
2022-08-26T17:45:42.702Z,5.63
2022-08-26T17:48:14.073Z,5.90
2022-08-26T17:50:42.353Z,6.07
2022-08-26T17:53:17.831Z,5.80
2022-08-26T17:55:47.721Z,6.00
2022-08-26T17:58:19.990Z,6.38
2022-08-26T18:00:49.336Z,7.03
2022-08-26T18:03:16.769Z,6.68
2022-08-26T18:05:48.245Z,7.30
2022-08-26T18:08:17.333Z,6.40
2022-08-26T18:10:44.797Z,6.35
2022-08-26T18:13:11.891Z,7.28
2022-08-26T18:15:39.975Z,7.63
2022-08-26T18:18:06.862Z,8.18
2022-08-26T18:20:33.536Z,7.85
2022-08-26T18:23:00.281Z,7.25
2022-08-26T18:25:26.885Z,8.02
2022-08-26T18:27:53.560Z,7.43
2022-08-26T18:30:21.905Z,7.43
2022-08-26T18:32:52.484Z,7.60
2022-08-26T18:35:19.730Z,7.35
2022-08-26T18:37:46.360Z,7.53
2022-08-26T18:40:14.276Z,8.63
2022-08-26T18:42:41.522Z,7.45
2022-08-26T18:45:09.626Z,7.85
2022-08-26T18:47:43.204Z,8.80
2022-08-26T18:50:11.089Z,7.95
2022-08-26T18:52:38.015Z,7.90
2022-08-26T18:55:04.970Z,8.73
2022-08-26T18:57:34.838Z,8.85
2022-08-26T19:00:02.706Z,8.57
2022-08-26T19:02:30.605Z,8.52
2022-08-26T19:05:02.632Z,8.02
2022-08-26T19:07:29.314Z,8.93
2022-08-26T19:09:55.973Z,8.32
2022-08-26T19:12:22.994Z,7.75
2022-08-26T19:14:53.515Z,7.97
2022-08-26T19:17:20.122Z,7.57
2022-08-26T19:19:49.816Z,8.02
2022-08-26T19:22:16.539Z,7.07
2022-08-26T19:24:43.236Z,7.85
2022-08-26T19:27:14.622Z,7.53
2022-08-26T19:29:42.154Z,8.18
2022-08-26T19:32:08.841Z,7.97
2022-08-26T19:34:36.452Z,7.35
2022-08-26T19:37:03.093Z,7.60
2022-08-26T19:39:29.861Z,8.30
2022-08-26T19:41:56.581Z,7.75
2022-08-26T19:44:42.121Z,8.27
2022-08-26T19:47:11.107Z,7.97
2022-08-26T19:49:38.231Z,9.65
2022-08-26T19:52:06.060Z,9.20
2022-08-26T19:54:33.570Z,9.30
2022-08-26T19:57:00.474Z,9.43
2022-08-26T19:59:27.100Z,8.45
2022-08-26T20:02:01.254Z,10.43
2022-08-26T20:04:32.401Z,8.90
2022-08-26T20:07:00.491Z,9.73
2022-08-26T20:09:29.338Z,9.60
2022-08-26T20:11:56.836Z,9.93
2022-08-26T20:14:24.365Z,10.55
2022-08-26T20:16:51.113Z,11.85
2022-08-26T20:19:37.633Z,12.85
2022-08-26T20:22:05.467Z,13.68
2022-08-26T20:24:32.836Z,12.55
2022-08-26T20:27:02.288Z,12.57
2022-08-26T20:29:31.146Z,12.52
2022-08-26T20:31:58.852Z,12.93
2022-08-26T20:34:26.358Z,13.93
2022-08-26T20:36:53.046Z,13.05
2022-08-26T20:39:21.122Z,13.60
2022-08-26T20:41:48.487Z,13.23
2022-08-26T20:44:16.675Z,13.20
2022-08-26T20:46:44.302Z,13.23
2022-08-26T20:49:11.701Z,12.82
2022-08-26T20:51:38.440Z,14.45
2022-08-26T20:54:06.495Z,12.98
2022-08-26T20:56:34.085Z,13.52
2022-08-26T20:59:01.417Z,13.98
2022-08-26T21:01:34.561Z,15.32
2022-08-26T21:04:04.551Z,12.80
2022-08-26T21:06:33.849Z,13.13
2022-08-26T21:09:02.136Z,12.63
2022-08-26T21:11:29.229Z,13.85
2022-08-26T21:14:16.220Z,15.40
2022-08-26T21:16:44.179Z,14.48
2022-08-26T21:19:13.904Z,13.68
2022-08-26T21:21:41.633Z,13.57
2022-08-26T21:24:08.673Z,13.80
2022-08-26T21:26:35.361Z,15.75
2022-08-26T21:29:03.062Z,14.77
2022-08-26T21:31:31.960Z,13.55
2022-08-26T21:33:59.709Z,13.48
2022-08-26T21:36:26.771Z,14.00
2022-08-26T21:38:59.129Z,14.20
2022-08-26T21:41:27.116Z,14.15
2022-08-26T21:43:58.907Z,14.23
2022-08-26T21:46:29.416Z,14.88
2022-08-26T21:48:59.737Z,15.15
2022-08-26T21:51:29.436Z,15.45
2022-08-26T21:53:58.023Z,15.65
2022-08-26T21:56:26.871Z,16.23
2022-08-26T21:58:55.125Z,16.90
2022-08-26T22:01:23.633Z,15.63
2022-08-26T22:03:52.624Z,15.93
2022-08-26T22:06:22.284Z,17.15
2022-08-26T22:08:49.106Z,18.13
2022-08-26T22:11:16.448Z,16.85
2022-08-26T22:13:44.116Z,16.67
2022-08-26T22:16:11.490Z,17.17
2022-08-26T22:18:39.448Z,17.38
2022-08-26T22:21:08.765Z,19.08
2022-08-26T22:23:36.459Z,17.08
2022-08-26T22:26:05.331Z,16.52
2022-08-26T22:28:31.976Z,17.27
2022-08-26T22:30:58.697Z,18.25
2022-08-26T22:33:25.732Z,16.92
2022-08-26T22:35:53.092Z,17.83
2022-08-26T22:38:21.193Z,16.27
2022-08-26T22:40:50.958Z,18.83
2022-08-26T22:43:19.279Z,18.45
2022-08-26T22:45:48.026Z,16.70
2022-08-26T22:48:18.984Z,15.90
2022-08-26T22:53:15.603Z,15.50
2022-08-26T22:55:43.532Z,15.63
2022-08-26T22:58:12.277Z,16.42
2022-08-26T23:00:39.999Z,17.10
2022-08-26T23:03:08.174Z,16.77
2022-08-26T23:05:35.586Z,16.38
2022-08-26T23:08:02.950Z,17.10
2022-08-26T23:10:33.217Z,15.85
2022-08-26T23:13:02.717Z,15.48
2022-08-26T23:15:30.293Z,17.23
2022-08-26T23:17:58.575Z,17.88
2022-08-26T23:20:26.820Z,17.02
2022-08-26T23:22:54.079Z,15.00
2022-08-26T23:25:21.208Z,16.20
2022-08-26T23:27:48.525Z,16.27
2022-08-26T23:30:18.582Z,17.58
2022-08-26T23:32:45.531Z,15.63
2022-08-26T23:35:14.141Z,14.52
2022-08-26T23:37:44.321Z,16.58
2022-08-26T23:40:18.325Z,17.42
2022-08-26T23:42:45.004Z,16.58
2022-08-26T23:45:13.376Z,18.27
2022-08-26T23:47:41.155Z,15.45
2022-08-26T23:50:08.770Z,16.05
2022-08-26T23:52:54.318Z,15.15
2022-08-26T23:55:21.380Z,16.48
2022-08-26T23:57:47.979Z,15.60
